Search for airport 
image banner adimage banner adimage banner ad
image banner ad

CL06 - Glendale Adventist Medical Center/Gamc

Located in Glendale, United States

ICAO - CL06, IATA -

Data provided by Airmate  

General information

Coordinates: N34°9'6" W118°13'50"
Elevation is 717 feet MSL.
Magnetic variation is 14° East
View others Airports in California

Operational data

Special qualification required
Current time UTC:
Current local time:
Weather at : KBUR - Bob Hope ( 13 km )
METAR: KBUR 212253Z 18009KT 10SM CLR 37/03 A3002 RMK AO2 SLP150 T03720028 $
TAF: KBUR 211731Z 2118/2218 00000KT P6SM SKC FM212100 17010KT P6SM SKC FM220300 13006KT P6SM SKC FM220700 VRB03KT P6SM SKC
View NOTAMs / SUP AIP / TFR affecting this airport [VIEW]
Communications frequencies: [VIEW]

Runways:

Airport contact information

Address: Glendale United States

Satellite view of CL06